Time;durP1;ratioP1;P1;durP2;ratioP2;P2;SDS_P1;SDS_P2;PMS_P1;PMS_P2;Temp;Humidity;BMP_temperature;BMP_pressure;BME280_temperature;BME280_humidity;BME280_pressure;Samples;Min_cycle;Max_cycle;Signal;HPM_P1;HPM_P2
2022/05/20 00:00:17;;;;;;;;;;;;;;;;;;5076948;28;28366;-79
2022/05/20 00:02:42;;;;;;;;;;;;;;;;;;5076481;28;28674;-79
2022/05/20 00:05:07;;;;;;;;;;;;;;;;;;5076992;28;28384;-79
2022/05/20 00:07:32;;;;;;;;;;;;;;;;;;5076865;28;28342;-79
2022/05/20 00:09:57;;;;;;;;;;;;;;;;;;5077088;28;28383;-79
2022/05/20 00:12:22;;;;;;;;;;;;;;;;;;5076287;28;28372;-79
2022/05/20 00:14:48;;;;;;;;;;;;;;;;;;5076140;28;28350;-79
2022/05/20 00:17:13;;;;;;;;;;;;;;;;;;5076970;28;28493;-79
2022/05/20 00:19:38;;;;;;;;;;;;;;;;;;5076834;28;28625;-78
2022/05/20 00:22:05;;;;;;;;;;;;;;;;;;5076879;28;29151;-79
2022/05/20 00:24:30;;;;;;;;;;;;;;;;;;5076410;28;28882;-79
2022/05/20 00:26:56;;;;;;;;;;;;;;;;;;5076397;28;28389;-79
2022/05/20 00:29:21;;;;;;;;;;;;;;;;;;5087407;28;27760;-79
2022/05/20 00:31:46;;;;;;;;;;;;;;;;;;5096548;28;28412;-79
2022/05/20 00:34:11;;;;;;;;;;;;;;;;;;5096936;28;28301;-79
2022/05/20 00:36:37;;;;;;;;;;;;;;;;;;5079724;28;28330;-78
2022/05/20 00:39:02;;;;;;;;;;;;;;;;;;5076737;28;28530;-79
2022/05/20 00:41:27;;;;;;;;;;;;;;;;;;5076452;28;29457;-79
2022/05/20 00:43:52;;;;;;;;;;;;;;;;;;5076174;28;28280;-78
2022/05/20 00:46:17;;;;;;;;;;;;;;;;;;5076391;28;28391;-78
2022/05/20 00:48:42;;;;;;;;;;;;;;;;;;5076359;28;28424;-79
2022/05/20 00:51:07;;;;;;;;;;;;;;;;;;5095812;28;29717;-78
2022/05/20 00:53:33;;;;;;;;;;;;;;;;;;5090894;28;28508;-79
2022/05/20 00:55:58;;;;;;;;;;;;;;;;;;5076341;28;28260;-79
2022/05/20 00:58:23;;;;;;;;;;;;;;;;;;5080520;28;28249;-78
2022/05/20 01:00:48;;;;;;;;;;;;;;;;;;5096351;28;28355;-79
2022/05/20 01:03:13;;;;;;;;;;;;;;;;;;5096375;28;28279;-79
2022/05/20 01:05:38;;;;;;;;;;;;;;;;;;5096442;28;28457;-78
2022/05/20 01:08:03;;;;;;;;;;;;;;;;;;5096355;28;28291;-78
2022/05/20 01:10:28;;;;;;;;;;;;;;;;;;5096085;28;28869;-79
2022/05/20 01:12:54;;;;;;;;;;;;;;;;;;5092050;28;28578;-79
2022/05/20 01:15:19;;;;;;;;;;;;;;;;;;5075994;28;28252;-79
2022/05/20 01:17:44;;;;;;;;;;;;;;;;;;5076026;28;28211;-78
2022/05/20 01:20:09;;;;;;;;;;;;;;;;;;5075627;28;28489;-78
2022/05/20 01:22:34;;;;;;;;;;;;;;;;;;5087425;28;28362;-78
2022/05/20 01:24:59;;;;;;;;;;;;;;;;;;5096081;28;28390;-78
2022/05/20 01:27:24;;;;;;;;;;;;;;;;;;5083272;28;28448;-78
2022/05/20 01:29:49;;;;;;;;;;;;;;;;;;5075314;28;28385;-78
2022/05/20 01:32:14;;;;;;;;;;;;;;;;;;5075483;28;28327;-79
2022/05/20 01:34:40;;;;;;;;;;;;;;;;;;5075924;28;28358;-79
2022/05/20 01:37:05;;;;;;;;;;;;;;;;;;5075070;28;28508;-79
2022/05/20 01:39:30;;;;;;;;;;;;;;;;;;5075163;28;28289;-79
2022/05/20 01:41:55;;;;;;;;;;;;;;;;;;5075255;28;27649;-79
2022/05/20 01:44:21;;;;;;;;;;;;;;;;;;5075695;28;28452;-79
2022/05/20 01:46:46;;;;;;;;;;;;;;;;;;5075593;28;28503;-78
2022/05/20 01:49:11;;;;;;;;;;;;;;;;;;5075266;28;29375;-79
2022/05/20 01:51:36;;;;;;;;;;;;;;;;;;5075326;28;28554;-79
2022/05/20 01:54:01;;;;;;;;;;;;;;;;;;5075437;28;28384;-79
2022/05/20 01:56:27;;;;;;;;;;;;;;;;;;5075501;28;28353;-79
2022/05/20 01:58:52;;;;;;;;;;;;;;;;;;5075474;28;28468;-79
2022/05/20 02:01:17;;;;;;;;;;;;;;;;;;5075280;28;28437;-79
2022/05/20 02:03:43;;;;;;;;;;;;;;;;;;5075071;28;28377;-79
2022/05/20 02:06:08;;;;;;;;;;;;;;;;;;5090580;28;28576;-78
2022/05/20 02:08:33;;;;;;;;;;;;;;;;;;5074946;28;28382;-79
2022/05/20 02:10:58;;;;;;;;;;;;;;;;;;5075031;28;28436;-78
2022/05/20 02:13:23;;;;;;;;;;;;;;;;;;5074710;28;28396;-78
2022/05/20 02:15:48;;;;;;;;;;;;;;;;;;5075363;28;28471;-78
2022/05/20 02:18:13;;;;;;;;;;;;;;;;;;5075100;28;28381;-78
2022/05/20 02:20:38;;;;;;;;;;;;;;;;;;5075018;28;28323;-78
2022/05/20 02:23:03;;;;;;;;;;;;;;;;;;5075078;28;28380;-78
2022/05/20 02:25:28;;;;;;;;;;;;;;;;;;5075075;28;28434;-78
2022/05/20 02:27:54;;;;;;;;;;;;;;;;;;5074535;28;28532;-78
2022/05/20 02:30:19;;;;;;;;;;;;;;;;;;5093530;28;28395;-79
2022/05/20 02:32:44;;;;;;;;;;;;;;;;;;5094998;28;28378;-79
2022/05/20 02:35:09;;;;;;;;;;;;;;;;;;5095415;28;28423;-79
2022/05/20 02:37:34;;;;;;;;;;;;;;;;;;5095226;28;29317;-78
2022/05/20 02:39:59;;;;;;;;;;;;;;;;;;5079297;28;28410;-79
2022/05/20 02:42:27;;;;;;;;;;;;;;;;;;5074774;28;27825;-79
2022/05/20 02:44:52;;;;;;;;;;;;;;;;;;5075073;28;28269;-79
2022/05/20 02:47:17;;;;;;;;;;;;;;;;;;5074493;28;29419;-79
2022/05/20 02:49:42;;;;;;;;;;;;;;;;;;5074729;28;28437;-78
2022/05/20 02:52:07;;;;;;;;;;;;;;;;;;5074782;28;28502;-79
2022/05/20 02:54:32;;;;;;;;;;;;;;;;;;5074706;28;28625;-79
2022/05/20 02:56:57;;;;;;;;;;;;;;;;;;5074364;28;28727;-79
2022/05/20 03:04:50;;;;;;;;;;;;;;;;;;5074530;28;28332;-79
2022/05/20 03:07:15;;;;;;;;;;;;;;;;;;5077977;28;28319;-78
2022/05/20 03:09:41;;;;;;;;;;;;;;;;;;5074516;28;28344;-78
2022/05/20 03:12:06;;;;;;;;;;;;;;;;;;5088076;28;28375;-78
2022/05/20 03:14:32;;;;;;;;;;;;;;;;;;5095166;28;28310;-79
2022/05/20 03:16:57;;;;;;;;;;;;;;;;;;5096480;28;28345;-79
2022/05/20 03:19:22;;;;;;;;;;;;;;;;;;5098307;28;28404;-79
2022/05/20 03:21:48;;;;;;;;;;;;;;;;;;5097750;28;27840;-79
2022/05/20 03:24:13;;;;;;;;;;;;;;;;;;5098324;28;28304;-78
2022/05/20 03:26:39;;;;;;;;;;;;;;;;;;5097860;28;29145;-78
2022/05/20 03:29:04;;;;;;;;;;;;;;;;;;5097754;28;28311;-78
2022/05/20 03:31:29;;;;;;;;;;;;;;;;;;5098134;28;28257;-78
2022/05/20 03:33:54;;;;;;;;;;;;;;;;;;5098059;28;28438;-78
2022/05/20 03:36:19;;;;;;;;;;;;;;;;;;5097279;28;29775;-79
2022/05/20 03:38:44;;;;;;;;;;;;;;;;;;5077404;28;28278;-79
2022/05/20 03:41:10;;;;;;;;;;;;;;;;;;5077271;28;28479;-79
2022/05/20 03:43:35;;;;;;;;;;;;;;;;;;5077826;28;28365;-79
2022/05/20 03:46:00;;;;;;;;;;;;;;;;;;5077319;28;29643;-79
2022/05/20 03:48:25;;;;;;;;;;;;;;;;;;5092973;28;28508;-79
2022/05/20 03:50:50;;;;;;;;;;;;;;;;;;5077387;28;28408;-79
2022/05/20 03:53:15;;;;;;;;;;;;;;;;;;5077440;28;28358;-79
2022/05/20 03:55:40;;;;;;;;;;;;;;;;;;5077210;28;29322;-79
2022/05/20 03:58:06;;;;;;;;;;;;;;;;;;5077161;28;28486;-79
2022/05/20 04:00:31;;;;;;;;;;;;;;;;;;5077403;28;28457;-79
2022/05/20 04:02:56;;;;;;;;;;;;;;;;;;5081259;28;28540;-79
2022/05/20 04:05:21;;;;;;;;;;;;;;;;;;5096372;28;29574;-78
2022/05/20 04:07:46;;;;;;;;;;;;;;;;;;5097452;28;28536;-79
2022/05/20 04:10:11;;;;;;;;;;;;;;;;;;5084896;28;28573;-79
2022/05/20 04:12:37;;;;;;;;;;;;;;;;;;5076972;28;28466;-79
2022/05/20 04:15:03;;;;;;;;;;;;;;;;;;5077028;28;28413;-79
2022/05/20 04:17:28;;;;;;;;;;;;;;;;;;5076855;28;28361;-79
2022/05/20 04:19:53;;;;;;;;;;;;;;;;;;5077139;28;28339;-79
2022/05/20 04:22:18;;;;;;;;;;;;;;;;;;5077028;28;28410;-79
2022/05/20 04:24:43;;;;;;;;;;;;;;;;;;5076655;28;29444;-79
2022/05/20 04:27:08;;;;;;;;;;;;;;;;;;5079276;28;28506;-79
2022/05/20 04:29:34;;;;;;;;;;;;;;;;;;5097073;28;28385;-79
2022/05/20 04:31:59;;;;;;;;;;;;;;;;;;5096973;28;28339;-79
2022/05/20 04:34:24;;;;;;;;;;;;;;;;;;5096887;28;28386;-79
2022/05/20 04:36:49;;;;;;;;;;;;;;;;;;5096837;28;28350;-79
2022/05/20 04:39:14;;;;;;;;;;;;;;;;;;5097097;28;28426;-79
2022/05/20 04:47:08;;;;;;;;;;;;;;;;;;5096848;28;28410;-82
2022/05/20 04:49:33;;;;;;;;;;;;;;;;;;5096441;28;28376;-82
2022/05/20 04:52:00;;;;;;;;;;;;;;;;;;5075932;28;28331;-83
2022/05/20 04:57:09;;;;;;;;;;;;;;;;;;5055983;28;28303;-82
2022/05/20 04:59:34;;;;;;;;;;;;;;;;;;5056133;28;28529;-84
2022/05/20 05:01:59;;;;;;;;;;;;;;;;;;5068250;28;28445;-82
2022/05/20 05:04:24;;;;;;;;;;;;;;;;;;5095795;28;29172;-83
2022/05/20 05:06:50;;;;;;;;;;;;;;;;;;5096416;28;28392;-83
2022/05/20 05:09:15;;;;;;;;;;;;;;;;;;5096640;28;28442;-83
2022/05/20 05:11:40;;;;;;;;;;;;;;;;;;5096337;28;28481;-83
2022/05/20 05:14:05;;;;;;;;;;;;;;;;;;5096515;28;29290;-84
2022/05/20 05:16:30;;;;;;;;;;;;;;;;;;5096098;28;28450;-84
2022/05/20 05:18:55;;;;;;;;;;;;;;;;;;5088781;28;28407;-85
2022/05/20 05:21:21;;;;;;;;;;;;;;;;;;5076051;28;28386;-82
2022/05/20 05:23:46;;;;;;;;;;;;;;;;;;5075919;28;28460;-82
2022/05/20 05:26:11;;;;;;;;;;;;;;;;;;5088188;28;29112;-82
2022/05/20 05:28:36;;;;;;;;;;;;;;;;;;5095844;28;28425;-83
2022/05/20 05:31:01;;;;;;;;;;;;;;;;;;5095824;28;28725;-82
2022/05/20 05:33:26;;;;;;;;;;;;;;;;;;5095853;28;28426;-82
2022/05/20 05:35:51;;;;;;;;;;;;;;;;;;5096115;28;28829;-83
2022/05/20 05:38:16;;;;;;;;;;;;;;;;;;5095110;28;28323;-81
2022/05/20 05:40:42;;;;;;;;;;;;;;;;;;5095554;28;28532;-83
2022/05/20 05:43:07;;;;;;;;;;;;;;;;;;5096054;28;29427;-83
2022/05/20 05:45:32;;;;;;;;;;;;;;;;;;5074909;28;27888;-83
2022/05/20 05:47:57;;;;;;;;;;;;;;;;;;5058028;28;28214;-83
2022/05/20 05:50:22;;;;;;;;;;;;;;;;;;5057592;28;28332;-83
2022/05/20 05:52:47;;;;;;;;;;;;;;;;;;5065762;28;29123;-83
2022/05/20 05:55:13;;;;;;;;;;;;;;;;;;5060329;28;28303;-83
2022/05/20 05:57:39;;;;;;;;;;;;;;;;;;5078341;28;28612;-83
2022/05/20 06:00:04;;;;;;;;;;;;;;;;;;5075263;28;28434;-83
2022/05/20 06:02:29;;;;;;;;;;;;;;;;;;5081985;28;29132;-82
2022/05/20 06:04:54;;;;;;;;;;;;;;;;;;5095442;28;28370;-83
2022/05/20 06:07:19;;;;;;;;;;;;;;;;;;5095518;28;28313;-83
2022/05/20 06:09:45;;;;;;;;;;;;;;;;;;5095408;28;28355;-84
2022/05/20 06:12:11;;;;;;;;;;;;;;;;;;5094968;28;28406;-83
2022/05/20 06:14:36;;;;;;;;;;;;;;;;;;5095288;28;28477;-83
2022/05/20 06:17:01;;;;;;;;;;;;;;;;;;5075678;28;28369;-84
2022/05/20 06:19:26;;;;;;;;;;;;;;;;;;5075097;28;27840;-83
2022/05/20 06:21:52;;;;;;;;;;;;;;;;;;5074596;28;28418;-83
2022/05/20 06:24:17;;;;;;;;;;;;;;;;;;5074807;28;28497;-82
2022/05/20 06:26:42;;;;;;;;;;;;;;;;;;5074618;28;28721;-84
2022/05/20 06:29:07;;;;;;;;;;;;;;;;;;5074779;28;28446;-90
2022/05/20 06:31:32;;;;;;;;;;;;;;;;;;5074756;28;30028;-84
2022/05/20 06:33:58;;;;;;;;;;;;;;;;;;5074992;28;28492;-85
2022/05/20 06:41:51;;;;;;;;;;;;;;;;;;5054532;28;28554;-82
2022/05/20 06:44:16;;;;;;;;;;;;;;;;;;5054426;28;28475;-82
2022/05/20 06:46:41;;;;;;;;;;;;;;;;;;5054732;28;28360;-82
2022/05/20 06:49:06;;;;;;;;;;;;;;;;;;5054489;28;28390;-80
2022/05/20 06:51:31;;;;;;;;;;;;;;;;;;5057842;28;28305;-80
2022/05/20 06:53:56;;;;;;;;;;;;;;;;;;5057911;28;28466;-80
2022/05/20 06:56:21;;;;;;;;;;;;;;;;;;5062517;28;28327;-80
2022/05/20 06:58:46;;;;;;;;;;;;;;;;;;5058146;28;27814;-81
2022/05/20 07:01:11;;;;;;;;;;;;;;;;;;5066346;28;28714;-81
2022/05/20 07:03:37;;;;;;;;;;;;;;;;;;5078117;28;28461;-81
2022/05/20 07:06:02;;;;;;;;;;;;;;;;;;5078148;28;28491;-81
2022/05/20 07:08:27;;;;;;;;;;;;;;;;;;5078190;28;28444;-81
2022/05/20 07:10:52;;;;;;;;;;;;;;;;;;5078024;28;28406;-81
2022/05/20 07:13:17;;;;;;;;;;;;;;;;;;5077906;28;28470;-81
2022/05/20 07:15:42;;;;;;;;;;;;;;;;;;5068129;28;28442;-81
2022/05/20 07:18:07;;;;;;;;;;;;;;;;;;5057806;28;27809;-81
2022/05/20 07:20:32;;;;;;;;;;;;;;;;;;5057573;28;28511;-81
2022/05/20 07:22:58;;;;;;;;;;;;;;;;;;5057807;28;28489;-81
2022/05/20 07:25:23;;;;;;;;;;;;;;;;;;5057610;28;28449;-81
2022/05/20 07:27:48;;;;;;;;;;;;;;;;;;5057417;28;28434;-82
2022/05/20 07:30:13;;;;;;;;;;;;;;;;;;5084647;28;29460;-81
2022/05/20 07:32:38;;;;;;;;;;;;;;;;;;5077602;28;28430;-81
2022/05/20 07:35:03;;;;;;;;;;;;;;;;;;5077738;28;28335;-81
2022/05/20 07:37:28;;;;;;;;;;;;;;;;;;5077675;28;28463;-81
2022/05/20 07:39:53;;;;;;;;;;;;;;;;;;5084343;28;28567;-81
2022/05/20 07:42:18;;;;;;;;;;;;;;;;;;5097853;28;28385;-81
2022/05/20 07:44:44;;;;;;;;;;;;;;;;;;5097902;28;28371;-81
2022/05/20 07:47:09;;;;;;;;;;;;;;;;;;5097469;28;28311;-81
2022/05/20 07:49:34;;;;;;;;;;;;;;;;;;5097747;28;28463;-81
2022/05/20 07:52:03;;;;;;;;;;;;;;;;;;5095669;28;28404;-81
2022/05/20 07:54:28;;;;;;;;;;;;;;;;;;5057076;28;28340;-82
2022/05/20 07:56:55;;;;;;;;;;;;;;;;;;5057461;28;28316;-81
2022/05/20 07:59:20;;;;;;;;;;;;;;;;;;5056954;28;28575;-81
2022/05/20 08:01:45;;;;;;;;;;;;;;;;;;5056397;28;28598;-81
2022/05/20 08:06:54;;;;;;;;;;;;;;;;;;5058557;28;28254;-81
2022/05/20 08:09:19;;;;;;;;;;;;;;;;;;5076879;28;28497;-81
2022/05/20 08:11:44;;;;;;;;;;;;;;;;;;5077102;28;28487;-81
2022/05/20 08:14:10;;;;;;;;;;;;;;;;;;5076955;28;28260;-82
2022/05/20 08:16:35;;;;;;;;;;;;;;;;;;5077958;28;28366;-82
2022/05/20 08:19:00;;;;;;;;;;;;;;;;;;5077720;28;28525;-82
2022/05/20 08:21:25;;;;;;;;;;;;;;;;;;5076807;28;28255;-82
2022/05/20 08:23:50;;;;;;;;;;;;;;;;;;5077166;28;28363;-82
2022/05/20 08:26:17;;;;;;;;;;;;;;;;;;5076948;28;28442;-82
2022/05/20 08:28:42;;;;;;;;;;;;;;;;;;5076318;28;28397;-82
2022/05/20 08:31:08;;;;;;;;;;;;;;;;;;5076684;28;28475;-82
2022/05/20 08:33:34;;;;;;;;;;;;;;;;;;5076790;28;28515;-82
2022/05/20 08:35:59;;;;;;;;;;;;;;;;;;5076988;28;28469;-82
2022/05/20 08:38:25;;;;;;;;;;;;;;;;;;5076624;28;28440;-82
2022/05/20 08:40:50;;;;;;;;;;;;;;;;;;5076310;28;28424;-82
2022/05/20 08:43:15;;;;;;;;;;;;;;;;;;5076675;28;28454;-82
2022/05/20 08:45:41;;;;;;;;;;;;;;;;;;5076432;28;28298;-82
2022/05/20 08:48:06;;;;;;;;;;;;;;;;;;5076346;28;28360;-82
2022/05/20 08:50:31;;;;;;;;;;;;;;;;;;5075420;28;28473;-82
2022/05/20 08:52:56;;;;;;;;;;;;;;;;;;5076205;28;28382;-82
2022/05/20 08:55:21;;;;;;;;;;;;;;;;;;5076103;28;28208;-82
2022/05/20 08:57:46;;;;;;;;;;;;;;;;;;5076358;28;28765;-82
2022/05/20 09:00:11;;;;;;;;;;;;;;;;;;5076210;28;28242;-82
2022/05/20 09:02:36;;;;;;;;;;;;;;;;;;5076337;28;28473;-82
2022/05/20 09:05:01;;;;;;;;;;;;;;;;;;5076091;28;28302;-82
2022/05/20 09:07:26;;;;;;;;;;;;;;;;;;5075677;28;28347;-82
2022/05/20 09:09:52;;;;;;;;;;;;;;;;;;5076106;28;28326;-82
2022/05/20 09:12:17;;;;;;;;;;;;;;;;;;5076406;28;28282;-82
2022/05/20 09:17:26;;;;;;;;;;;;;;;;;;5075781;28;28292;-82
2022/05/20 09:19:52;;;;;;;;;;;;;;;;;;5076088;28;28434;-82
2022/05/20 09:22:17;;;;;;;;;;;;;;;;;;5075097;28;28244;-82
2022/05/20 09:24:42;;;;;;;;;;;;;;;;;;5075836;28;28435;-82
2022/05/20 09:27:07;;;;;;;;;;;;;;;;;;5075910;28;28280;-82
2022/05/20 09:29:33;;;;;;;;;;;;;;;;;;5075570;28;28510;-81
2022/05/20 09:32:01;;;;;;;;;;;;;;;;;;5075937;28;28383;-81
2022/05/20 09:34:27;;;;;;;;;;;;;;;;;;5075858;28;28526;-81
2022/05/20 09:36:55;;;;;;;;;;;;;;;;;;5075623;28;28488;-81
2022/05/20 09:39:20;;;;;;;;;;;;;;;;;;5075658;28;28339;-80
2022/05/20 09:41:45;;;;;;;;;;;;;;;;;;5068765;28;28423;-81
2022/05/20 09:44:10;;;;;;;;;;;;;;;;;;5075796;28;28450;-82
2022/05/20 09:46:35;;;;;;;;;;;;;;;;;;5074783;28;28531;-82
2022/05/20 09:49:00;;;;;;;;;;;;;;;;;;5074849;28;28537;-83
2022/05/20 09:51:25;;;;;;;;;;;;;;;;;;5074631;28;28463;-83
2022/05/20 09:53:51;;;;;;;;;;;;;;;;;;5072077;28;28475;-85
2022/05/20 09:56:16;;;;;;;;;;;;;;;;;;5073803;28;29112;-83
2022/05/20 09:58:41;;;;;;;;;;;;;;;;;;5073655;28;28244;-83
2022/05/20 10:01:06;;;;;;;;;;;;;;;;;;5073884;28;27756;-83
2022/05/20 10:03:31;;;;;;;;;;;;;;;;;;5074065;28;28414;-83
2022/05/20 10:05:57;;;;;;;;;;;;;;;;;;5075017;28;28383;-85
2022/05/20 10:08:22;;;;;;;;;;;;;;;;;;5074509;28;28323;-85
2022/05/20 10:10:47;;;;;;;;;;;;;;;;;;5074591;28;28286;-87
2022/05/20 10:13:12;;;;;;;;;;;;;;;;;;5073988;28;28245;-91
2022/05/20 10:15:37;;;;;;;;;;;;;;;;;;5053232;28;29947;-90
2022/05/20 10:18:02;;;;;;;;;;;;;;;;;;5055783;28;28288;-88
2022/05/20 10:20:27;;;;;;;;;;;;;;;;;;5073635;28;28302;-89
2022/05/20 10:22:52;;;;;;;;;;;;;;;;;;5054379;28;28482;-88
2022/05/20 10:25:18;;;;;;;;;;;;;;;;;;5056150;28;28482;-86
2022/05/20 10:27:43;;;;;;;;;;;;;;;;;;5062234;28;28585;-86
2022/05/20 10:32:52;;;;;;;;;;;;;;;;;;5070449;28;28501;-86
2022/05/20 10:35:17;;;;;;;;;;;;;;;;;;5077392;28;28556;-85
2022/05/20 10:37:42;;;;;;;;;;;;;;;;;;5076909;28;28469;-85
2022/05/20 10:40:07;;;;;;;;;;;;;;;;;;5078404;28;28334;-87
2022/05/20 10:42:32;;;;;;;;;;;;;;;;;;5078479;28;28419;-86
2022/05/20 10:50:25;;;;;;;;;;;;;;;;;;5078673;28;28417;-87
2022/05/20 10:52:50;;;;;;;;;;;;;;;;;;5078417;28;28441;-89
2022/05/20 10:55:15;;;;;;;;;;;;;;;;;;5078199;28;29315;-89
2022/05/20 10:57:40;;;;;;;;;;;;;;;;;;5078197;28;28399;-88
2022/05/20 11:00:05;;;;;;;;;;;;;;;;;;5076695;28;28393;-89
2022/05/20 11:02:32;;;;;;;;;;;;;;;;;;5078457;28;28493;-89
2022/05/20 11:04:58;;;;;;;;;;;;;;;;;;5077903;28;28551;-88
2022/05/20 11:07:23;;;;;;;;;;;;;;;;;;5078175;28;28295;-88
2022/05/20 11:09:48;;;;;;;;;;;;;;;;;;5078004;28;28241;-88
2022/05/20 11:12:13;;;;;;;;;;;;;;;;;;5078161;28;28445;-87
2022/05/20 11:14:38;;;;;;;;;;;;;;;;;;5077646;28;28605;-83
2022/05/20 11:17:06;;;;;;;;;;;;;;;;;;5077735;28;28457;-88
2022/05/20 11:19:32;;;;;;;;;;;;;;;;;;5078202;28;28443;-86
2022/05/20 11:21:57;;;;;;;;;;;;;;;;;;5078216;28;28533;-85
2022/05/20 11:24:25;;;;;;;;;;;;;;;;;;5078110;28;29811;-88
2022/05/20 11:34:52;;;;;;;;;;;;;;;;;;5050539;22;28268;-94
2022/05/20 11:37:24;;;;;;;;;;;;;;;;;;5018931;28;28333;-93
2022/05/20 11:39:49;;;;;;;;;;;;;;;;;;5037499;28;28356;-88
2022/05/20 11:42:14;;;;;;;;;;;;;;;;;;5037424;28;27778;-83
2022/05/20 11:44:40;;;;;;;;;;;;;;;;;;5036021;28;28479;-85
2022/05/20 11:47:05;;;;;;;;;;;;;;;;;;5036369;28;28420;-84
2022/05/20 11:49:30;;;;;;;;;;;;;;;;;;5036742;28;28508;-83
2022/05/20 11:51:55;;;;;;;;;;;;;;;;;;5036483;28;28357;-84
2022/05/20 11:54:20;;;;;;;;;;;;;;;;;;5036383;28;28476;-84
2022/05/20 11:56:45;;;;;;;;;;;;;;;;;;5036249;28;28313;-83
2022/05/20 11:59:13;;;;;;;;;;;;;;;;;;5036548;28;28304;-82
2022/05/20 12:01:38;;;;;;;;;;;;;;;;;;5036214;28;28261;-84
2022/05/20 12:04:07;;;;;;;;;;;;;;;;;;5035996;28;28619;-84
2022/05/20 12:06:32;;;;;;;;;;;;;;;;;;5036314;28;28538;-86
2022/05/20 12:08:57;;;;;;;;;;;;;;;;;;5036313;28;28443;-84
2022/05/20 12:11:23;;;;;;;;;;;;;;;;;;5034963;28;28345;-86
2022/05/20 12:13:48;;;;;;;;;;;;;;;;;;5035763;28;28664;-85
2022/05/20 12:16:13;;;;;;;;;;;;;;;;;;5035755;28;28531;-85
2022/05/20 12:24:12;;;;;;;;;;;;;;;;;;5036041;28;28455;-86
2022/05/20 12:26:37;;;;;;;;;;;;;;;;;;5035700;28;28475;-87
2022/05/20 12:29:02;;;;;;;;;;;;;;;;;;5035349;28;28497;-86
2022/05/20 12:31:27;;;;;;;;;;;;;;;;;;5034690;28;28464;-87
2022/05/20 12:33:52;;;;;;;;;;;;;;;;;;5034832;28;28499;-87
2022/05/20 12:36:17;;;;;;;;;;;;;;;;;;5035793;28;28292;-89
2022/05/20 12:38:42;;;;;;;;;;;;;;;;;;5035277;28;27814;-88
2022/05/20 12:41:07;;;;;;;;;;;;;;;;;;5035913;28;29376;-89
2022/05/20 12:43:32;;;;;;;;;;;;;;;;;;5035932;28;29173;-88
2022/05/20 12:45:58;;;;;;;;;;;;;;;;;;5034662;28;28404;-88
2022/05/20 12:48:23;;;;;;;;;;;;;;;;;;5035019;28;28712;-86
2022/05/20 12:50:48;;;;;;;;;;;;;;;;;;5034507;28;28658;-87
2022/05/20 12:53:14;;;;;;;;;;;;;;;;;;5033977;28;30150;-87
2022/05/20 12:55:40;;;;;;;;;;;;;;;;;;5035342;28;28101;-86
2022/05/20 12:58:05;;;;;;;;;;;;;;;;;;5034452;28;28353;-86
2022/05/20 13:00:30;;;;;;;;;;;;;;;;;;5033352;28;28855;-86
2022/05/20 13:02:55;;;;;;;;;;;;;;;;;;5034653;28;28662;-85
2022/05/20 13:05:21;;;;;;;;;;;;;;;;;;5033532;28;28581;-85
2022/05/20 13:07:47;;;;;;;;;;;;;;;;;;5034440;28;28496;-86
2022/05/20 13:10:12;;;;;;;;;;;;;;;;;;5035334;28;28502;-79
2022/05/20 13:12:37;;;;;;;;;;;;;;;;;;5035298;28;28434;-85
2022/05/20 13:15:02;;;;;;;;;;;;;;;;;;5035281;28;28539;-84
2022/05/20 13:17:27;;;;;;;;;;;;;;;;;;5023633;28;28487;-86
2022/05/20 13:19:52;;;;;;;;;;;;;;;;;;5029643;28;28550;-89
2022/05/20 13:22:20;;;;;;;;;;;;;;;;;;5015129;28;28546;-89
2022/05/20 13:24:45;;;;;;;;;;;;;;;;;;5033491;28;28491;-90
2022/05/20 13:27:10;;;;;;;;;;;;;;;;;;5035181;28;28502;-86
2022/05/20 13:29:35;;;;;;;;;;;;;;;;;;5035154;28;28463;-84
2022/05/20 13:32:00;;;;;;;;;;;;;;;;;;5027175;28;29161;-84
2022/05/20 13:34:26;;;;;;;;;;;;;;;;;;5014967;28;28451;-83
2022/05/20 13:36:51;;;;;;;;;;;;;;;;;;5015262;28;28388;-84
2022/05/20 13:39:16;;;;;;;;;;;;;;;;;;5013903;28;28396;-83
2022/05/20 13:41:41;;;;;;;;;;;;;;;;;;5013826;28;28582;-83
2022/05/20 13:44:06;;;;;;;;;;;;;;;;;;5034231;28;28214;-86
2022/05/20 13:49:18;;;;;;;;;;;;;;;;;;5019436;28;28396;-87
2022/05/20 13:51:43;;;;;;;;;;;;;;;;;;5026645;28;28428;-87
2022/05/20 13:54:09;;;;;;;;;;;;;;;;;;5014804;28;28446;-86
2022/05/20 13:56:34;;;;;;;;;;;;;;;;;;5025812;28;28472;-86
2022/05/20 13:59:00;;;;;;;;;;;;;;;;;;5034518;28;28431;-83
2022/05/20 14:01:25;;;;;;;;;;;;;;;;;;5033846;28;28317;-84
2022/05/20 14:03:50;;;;;;;;;;;;;;;;;;5034366;28;28435;-88
2022/05/20 14:06:18;;;;;;;;;;;;;;;;;;5034820;28;28482;-88
2022/05/20 14:08:44;;;;;;;;;;;;;;;;;;5034677;28;28499;-86
2022/05/20 14:11:10;;;;;;;;;;;;;;;;;;5034352;28;28514;-87
2022/05/20 14:13:36;;;;;;;;;;;;;;;;;;5018364;28;28505;-88
2022/05/20 14:16:01;;;;;;;;;;;;;;;;;;5014551;28;28460;-88
2022/05/20 14:18:26;;;;;;;;;;;;;;;;;;4998997;28;28382;-86
2022/05/20 14:20:51;;;;;;;;;;;;;;;;;;5034101;28;28420;-85
2022/05/20 14:23:16;;;;;;;;;;;;;;;;;;5034460;28;28397;-84
2022/05/20 14:25:41;;;;;;;;;;;;;;;;;;5032094;28;27851;-85
2022/05/20 14:28:07;;;;;;;;;;;;;;;;;;5014380;28;28456;-86
2022/05/20 14:30:32;;;;;;;;;;;;;;;;;;5017030;28;28553;-81
2022/05/20 14:32:57;;;;;;;;;;;;;;;;;;5014020;28;28381;-84
2022/05/20 14:35:22;;;;;;;;;;;;;;;;;;5014303;28;28416;-85
2022/05/20 14:37:47;;;;;;;;;;;;;;;;;;5014465;28;28392;-81
2022/05/20 14:40:15;;;;;;;;;;;;;;;;;;5014662;28;28530;-81
2022/05/20 14:42:41;;;;;;;;;;;;;;;;;;5019979;28;28522;-85
2022/05/20 14:45:06;;;;;;;;;;;;;;;;;;5031817;28;28503;-83
2022/05/20 14:47:31;;;;;;;;;;;;;;;;;;5023379;28;28856;-83
2022/05/20 14:49:57;;;;;;;;;;;;;;;;;;5033705;28;28572;-83
2022/05/20 14:52:22;;;;;;;;;;;;;;;;;;5033997;28;28435;-83
2022/05/20 14:54:47;;;;;;;;;;;;;;;;;;5030831;28;28456;-84
2022/05/20 14:57:12;;;;;;;;;;;;;;;;;;5034129;28;28523;-84
2022/05/20 14:59:37;;;;;;;;;;;;;;;;;;5033935;28;28600;-84
2022/05/20 15:02:02;;;;;;;;;;;;;;;;;;5033162;28;28887;-82
2022/05/20 15:04:28;;;;;;;;;;;;;;;;;;5034019;28;28726;-84
2022/05/20 15:06:53;;;;;;;;;;;;;;;;;;5033666;28;28522;-82
2022/05/20 15:09:18;;;;;;;;;;;;;;;;;;5033227;28;29427;-84
2022/05/20 15:11:43;;;;;;;;;;;;;;;;;;5021367;28;28577;-82
2022/05/20 15:14:08;;;;;;;;;;;;;;;;;;5017538;28;28292;-82
2022/05/20 15:16:33;;;;;;;;;;;;;;;;;;5017155;28;28529;-83
2022/05/20 15:18:59;;;;;;;;;;;;;;;;;;5023714;28;28548;-83
2022/05/20 15:21:24;;;;;;;;;;;;;;;;;;5037066;28;28471;-82
2022/05/20 15:23:49;;;;;;;;;;;;;;;;;;5037222;28;28475;-85
2022/05/20 15:26:14;;;;;;;;;;;;;;;;;;5035609;28;28443;-81
2022/05/20 15:28:49;;;;;;;;;;;;;;;;;;5036343;28;29136;-81
2022/05/20 15:36:42;;;;;;;;;;;;;;;;;;5036788;28;28357;-82
2022/05/20 15:39:07;;;;;;;;;;;;;;;;;;5036853;28;28502;-83
2022/05/20 15:41:32;;;;;;;;;;;;;;;;;;5036204;28;28884;-82
2022/05/20 15:43:58;;;;;;;;;;;;;;;;;;5036631;28;28354;-82
2022/05/20 15:46:23;;;;;;;;;;;;;;;;;;5036658;28;28567;-82
2022/05/20 15:48:48;;;;;;;;;;;;;;;;;;5036105;28;28438;-85
2022/05/20 15:51:13;;;;;;;;;;;;;;;;;;5036590;28;28502;-82
2022/05/20 15:53:38;;;;;;;;;;;;;;;;;;5036451;28;27875;-82
2022/05/20 15:56:04;;;;;;;;;;;;;;;;;;5036615;28;28556;-85
2022/05/20 15:58:29;;;;;;;;;;;;;;;;;;5036417;28;28483;-85
2022/05/20 16:00:54;;;;;;;;;;;;;;;;;;5036241;28;28394;-82
2022/05/20 16:03:22;;;;;;;;;;;;;;;;;;5018413;28;28465;-83
2022/05/20 16:05:47;;;;;;;;;;;;;;;;;;5036358;28;28488;-83
2022/05/20 16:08:14;;;;;;;;;;;;;;;;;;5036046;28;28530;-80
2022/05/20 16:10:39;;;;;;;;;;;;;;;;;;5036310;28;28475;-80
2022/05/20 16:13:04;;;;;;;;;;;;;;;;;;5036042;28;28458;-80
2022/05/20 16:15:29;;;;;;;;;;;;;;;;;;5036188;28;28567;-81
2022/05/20 16:17:54;;;;;;;;;;;;;;;;;;5035922;28;28527;-85
2022/05/20 16:20:20;;;;;;;;;;;;;;;;;;5035992;28;28479;-84
2022/05/20 16:22:45;;;;;;;;;;;;;;;;;;5035525;28;28542;-83
2022/05/20 16:25:10;;;;;;;;;;;;;;;;;;5036137;28;28518;-84
2022/05/20 16:27:35;;;;;;;;;;;;;;;;;;5035997;28;29235;-82
2022/05/20 16:30:00;;;;;;;;;;;;;;;;;;5035805;28;28431;-83
2022/05/20 16:32:25;;;;;;;;;;;;;;;;;;5035734;28;28541;-82
2022/05/20 16:34:50;;;;;;;;;;;;;;;;;;5035931;28;28435;-82
2022/05/20 16:37:15;;;;;;;;;;;;;;;;;;5034843;28;28502;-83
2022/05/20 16:39:40;;;;;;;;;;;;;;;;;;5035686;28;28443;-82
2022/05/20 16:42:06;;;;;;;;;;;;;;;;;;5035880;28;28462;-82
2022/05/20 16:44:32;;;;;;;;;;;;;;;;;;5035801;28;28470;-84
2022/05/20 16:46:57;;;;;;;;;;;;;;;;;;5034918;28;28537;-79
2022/05/20 16:49:22;;;;;;;;;;;;;;;;;;5035230;28;28483;-79
2022/05/20 16:51:47;;;;;;;;;;;;;;;;;;5035631;28;28431;-80
2022/05/20 16:54:12;;;;;;;;;;;;;;;;;;5035265;28;28540;-81
2022/05/20 17:02:17;;;;;;;;;;;;;;;;;;4993208;28;28345;-81
2022/05/20 17:04:42;;;;;;;;;;;;;;;;;;4993521;28;28596;-85
2022/05/20 17:07:07;;;;;;;;;;;;;;;;;;4993225;28;29364;-86
2022/05/20 17:09:32;;;;;;;;;;;;;;;;;;4993545;28;28516;-83
2022/05/20 17:11:57;;;;;;;;;;;;;;;;;;4993393;28;28522;-81
2022/05/20 17:14:23;;;;;;;;;;;;;;;;;;4993583;28;28593;-82
2022/05/20 17:16:48;;;;;;;;;;;;;;;;;;4993061;28;28615;-80
2022/05/20 17:19:13;;;;;;;;;;;;;;;;;;4992516;28;28493;-83
2022/05/20 17:24:22;;;;;;;;;;;;;;;;;;4993014;28;29023;-83
2022/05/20 17:26:47;;;;;;;;;;;;;;;;;;4991547;28;28507;-83
2022/05/20 17:29:12;;;;;;;;;;;;;;;;;;4992813;28;28456;-88
2022/05/20 17:31:37;;;;;;;;;;;;;;;;;;4992807;28;28609;-82
2022/05/20 17:34:02;;;;;;;;;;;;;;;;;;4990907;28;28726;-79